createdAt,value
2017-08-20T00:02:18.701Z,77.80
2017-08-20T00:04:46.935Z,77.20
2017-08-20T00:07:15.316Z,77.20
2017-08-20T00:09:43.651Z,77.10
2017-08-20T00:12:11.884Z,77.30
2017-08-20T00:14:40.951Z,77.60
2017-08-20T00:17:09.395Z,77.60
2017-08-20T00:19:38.155Z,77.50
2017-08-20T00:22:08.298Z,77.20
2017-08-20T00:24:38.772Z,78.20
2017-08-20T00:27:07.180Z,77.40
2017-08-20T00:29:37.343Z,77.20
2017-08-20T00:32:05.617Z,77.10
2017-08-20T00:34:35.134Z,77.20
2017-08-20T00:37:03.356Z,77.40
2017-08-20T00:39:33.280Z,77.60
2017-08-20T00:42:02.092Z,77.50
2017-08-20T00:44:30.378Z,77.50
2017-08-20T00:46:58.628Z,77.90
2017-08-20T00:49:26.942Z,77.80
2017-08-20T00:51:55.197Z,78.00
2017-08-20T00:54:24.224Z,78.10
2017-08-20T00:56:52.489Z,78.00
2017-08-20T00:59:20.864Z,77.90
2017-08-20T01:01:49.118Z,77.90
2017-08-20T01:04:18.225Z,78.20
2017-08-20T01:06:47.007Z,78.20
2017-08-20T01:09:15.386Z,78.10
2017-08-20T01:11:43.638Z,78.40
2017-08-20T01:14:13.259Z,78.80
2017-08-20T01:16:41.507Z,79.00
2017-08-20T01:19:09.875Z,79.40
2017-08-20T01:21:38.091Z,79.70
2017-08-20T01:24:06.382Z,79.70
2017-08-20T01:26:34.653Z,79.60
2017-08-20T01:29:02.870Z,79.80
2017-08-20T01:31:31.147Z,79.90
2017-08-20T01:33:59.533Z,79.90
2017-08-20T01:36:27.846Z,79.90
2017-08-20T01:38:56.101Z,79.90
2017-08-20T01:41:24.725Z,80.40
2017-08-20T01:43:53.567Z,80.60
2017-08-20T01:46:21.890Z,80.70
2017-08-20T01:48:50.170Z,81.00
2017-08-20T01:51:18.459Z,81.20
2017-08-20T01:53:46.700Z,81.40
2017-08-20T01:56:15.772Z,81.20
2017-08-20T01:58:44.329Z,81.90
2017-08-20T02:01:14.857Z,81.20
2017-08-20T02:03:45.186Z,81.40
2017-08-20T02:06:13.430Z,81.10
2017-08-20T02:08:42.720Z,81.20
2017-08-20T02:11:11.005Z,81.20
2017-08-20T02:13:39.448Z,80.90
2017-08-20T02:16:07.744Z,80.90
2017-08-20T02:18:36.422Z,80.90
2017-08-20T02:21:04.691Z,80.90
2017-08-20T02:23:33.641Z,81.10
2017-08-20T02:26:01.937Z,80.80
2017-08-20T02:28:30.208Z,80.70
2017-08-20T02:30:59.627Z,80.80
2017-08-20T02:33:28.585Z,80.80
2017-08-20T02:35:56.827Z,80.70
2017-08-20T02:38:25.130Z,80.70
2017-08-20T02:40:53.390Z,80.90
2017-08-20T02:43:21.653Z,80.90
2017-08-20T02:45:50.080Z,81.10
2017-08-20T02:48:18.482Z,81.20
2017-08-20T02:50:46.857Z,81.20
2017-08-20T02:53:15.326Z,81.10
2017-08-20T02:55:43.598Z,81.30
2017-08-20T02:58:12.632Z,81.00
2017-08-20T03:00:40.894Z,81.00
2017-08-20T03:03:09.139Z,81.10
2017-08-20T03:05:38.186Z,81.50
2017-08-20T03:08:06.866Z,81.50
2017-08-20T03:10:35.142Z,81.60
2017-08-20T03:13:03.470Z,82.00
2017-08-20T03:15:33.936Z,82.70
2017-08-20T03:18:02.244Z,82.70
2017-08-20T03:20:30.501Z,82.90
2017-08-20T03:22:58.770Z,83.00
2017-08-20T03:25:27.013Z,83.10
2017-08-20T03:27:56.181Z,83.30
2017-08-20T03:30:25.722Z,83.20
2017-08-20T03:32:54.163Z,83.30
2017-08-20T03:35:23.062Z,83.70
2017-08-20T03:37:51.443Z,84.10
2017-08-20T03:40:19.832Z,84.20
2017-08-20T03:42:48.130Z,84.30
2017-08-20T03:45:16.774Z,84.60
2017-08-20T03:47:45.121Z,84.90
2017-08-20T03:50:13.342Z,85.30
2017-08-20T03:52:42.374Z,85.70
2017-08-20T03:55:11.379Z,85.70
2017-08-20T03:57:41.151Z,85.90
2017-08-20T04:00:11.219Z,86.60
2017-08-20T04:02:39.497Z,85.70
2017-08-20T04:05:09.205Z,85.70
2017-08-20T04:07:37.494Z,85.70
2017-08-20T04:10:05.887Z,86.10
2017-08-20T04:12:34.117Z,86.30
2017-08-20T04:15:02.444Z,86.20
2017-08-20T04:17:31.905Z,85.80
2017-08-20T04:20:00.371Z,85.80
2017-08-20T04:22:28.615Z,85.60
2017-08-20T04:24:56.882Z,85.50
2017-08-20T04:27:25.142Z,85.50
2017-08-20T04:29:54.210Z,85.40
2017-08-20T04:32:22.463Z,85.10
2017-08-20T04:34:50.969Z,85.30
2017-08-20T04:37:19.199Z,85.40
2017-08-20T04:39:47.463Z,85.40
2017-08-20T04:42:15.861Z,85.40
2017-08-20T04:44:44.603Z,85.10
2017-08-20T04:47:14.093Z,85.10
2017-08-20T04:49:42.940Z,85.20
2017-08-20T04:52:11.245Z,84.90
2017-08-20T04:54:39.967Z,84.90
2017-08-20T04:57:08.212Z,85.00
2017-08-20T04:59:36.640Z,85.10
2017-08-20T05:02:05.001Z,84.70
2017-08-20T05:04:33.456Z,84.70
2017-08-20T05:07:01.735Z,85.00
2017-08-20T05:09:30.100Z,84.60
2017-08-20T05:11:58.871Z,84.10
2017-08-20T05:14:29.903Z,84.00
2017-08-20T05:16:59.317Z,84.40
2017-08-20T05:19:27.542Z,84.30
2017-08-20T05:21:55.893Z,84.10
2017-08-20T05:24:24.345Z,84.00
2017-08-20T05:26:52.888Z,83.90
2017-08-20T05:29:21.234Z,84.00
2017-08-20T05:31:49.612Z,84.10
2017-08-20T05:34:18.555Z,84.10
2017-08-20T05:36:46.849Z,83.70
2017-08-20T05:39:15.151Z,83.30
2017-08-20T05:41:44.623Z,82.70
2017-08-20T05:44:12.883Z,82.70
2017-08-20T05:46:41.321Z,81.40
2017-08-20T05:49:09.590Z,80.80
2017-08-20T05:51:37.970Z,81.00
2017-08-20T05:54:06.352Z,79.70
2017-08-20T05:56:35.406Z,79.60
2017-08-20T05:59:03.712Z,78.60
2017-08-20T06:01:31.979Z,78.40
2017-08-20T06:04:00.417Z,78.50
2017-08-20T06:06:29.361Z,78.70
2017-08-20T06:08:57.575Z,78.40
2017-08-20T06:11:27.470Z,77.30
2017-08-20T06:13:56.875Z,77.60
2017-08-20T06:16:26.595Z,77.60
2017-08-20T06:18:54.844Z,77.80
2017-08-20T06:21:24.053Z,78.10
2017-08-20T06:23:52.413Z,77.90
2017-08-20T06:26:20.819Z,78.10
2017-08-20T06:28:49.181Z,77.60
2017-08-20T06:31:18.326Z,76.50
2017-08-20T06:33:46.604Z,76.40
2017-08-20T06:36:14.882Z,74.70
2017-08-20T06:38:44.419Z,74.40
2017-08-20T06:41:12.890Z,73.10
2017-08-20T06:43:41.307Z,73.20
2017-08-20T06:46:09.701Z,73.20
2017-08-20T06:48:38.066Z,73.70
2017-08-20T06:51:07.294Z,72.80
2017-08-20T06:53:36.602Z,72.80
2017-08-20T06:56:04.857Z,72.90
2017-08-20T06:58:33.090Z,73.10
2017-08-20T07:01:01.333Z,71.60
2017-08-20T07:03:29.814Z,71.10
2017-08-20T07:05:58.062Z,70.40
2017-08-20T07:08:27.120Z,69.20
2017-08-20T07:10:55.350Z,67.60
2017-08-20T07:13:23.620Z,67.30
2017-08-20T07:15:52.048Z,65.90
2017-08-20T07:18:20.404Z,63.50
2017-08-20T07:20:48.890Z,62.20
2017-08-20T07:23:17.620Z,61.40
2017-08-20T07:25:45.981Z,61.00
2017-08-20T07:28:15.939Z,58.60
2017-08-20T07:30:44.200Z,58.60
2017-08-20T07:33:12.518Z,57.40
2017-08-20T07:35:40.818Z,57.40
2017-08-20T07:38:09.111Z,56.60
2017-08-20T07:40:37.893Z,56.50
2017-08-20T07:43:07.215Z,55.00
2017-08-20T07:45:35.610Z,54.90
2017-08-20T07:48:05.230Z,55.00
2017-08-20T07:50:33.480Z,53.90
2017-08-20T07:53:01.920Z,53.00
2017-08-20T07:55:30.213Z,52.30
2017-08-20T07:57:59.228Z,51.80
2017-08-20T08:00:27.548Z,51.80
2017-08-20T08:02:55.850Z,51.90
2017-08-20T08:05:25.417Z,51.90
2017-08-20T08:07:53.637Z,51.30
2017-08-20T08:10:23.225Z,50.80
2017-08-20T08:12:51.580Z,50.80
2017-08-20T08:15:19.940Z,50.00
2017-08-20T08:17:48.564Z,49.80
2017-08-20T08:20:16.805Z,49.40
2017-08-20T08:22:45.290Z,48.90
2017-08-20T08:25:14.618Z,48.40
2017-08-20T08:27:43.813Z,48.50
2017-08-20T08:30:12.085Z,48.00
2017-08-20T08:32:40.308Z,47.60
2017-08-20T08:35:08.580Z,47.70
2017-08-20T08:37:37.038Z,47.50
2017-08-20T08:40:05.426Z,46.80
2017-08-20T08:42:34.055Z,46.60
2017-08-20T08:45:03.248Z,45.20
2017-08-20T08:47:31.566Z,45.40
2017-08-20T08:50:00.449Z,45.40
2017-08-20T08:52:30.624Z,45.00
2017-08-20T08:54:59.092Z,43.90
2017-08-20T08:57:27.387Z,44.70
2017-08-20T08:59:55.705Z,45.20
2017-08-20T09:02:24.345Z,43.80
2017-08-20T09:04:53.247Z,44.10
2017-08-20T09:07:23.717Z,44.20
2017-08-20T09:09:51.962Z,44.20
2017-08-20T09:12:20.613Z,44.00
2017-08-20T09:14:48.863Z,43.30
2017-08-20T09:17:17.990Z,42.20
2017-08-20T09:19:46.387Z,41.90
2017-08-20T09:22:14.662Z,41.60
2017-08-20T09:24:42.917Z,41.80
2017-08-20T09:27:11.302Z,42.00
2017-08-20T09:29:39.552Z,40.20
2017-08-20T09:32:07.797Z,40.70
2017-08-20T09:34:36.158Z,40.00
2017-08-20T09:37:04.408Z,40.10
2017-08-20T09:39:32.642Z,40.70
2017-08-20T09:42:00.902Z,40.50
2017-08-20T09:44:32.386Z,39.80
2017-08-20T09:47:00.675Z,39.80
2017-08-20T09:49:28.938Z,40.10
2017-08-20T09:51:57.187Z,40.40
2017-08-20T09:54:26.360Z,41.60
2017-08-20T09:56:54.688Z,41.60
2017-08-20T09:59:22.946Z,41.20
2017-08-20T10:01:51.208Z,41.10
2017-08-20T10:04:20.221Z,40.80
2017-08-20T10:06:50.384Z,40.80
2017-08-20T10:09:18.637Z,41.30
2017-08-20T10:11:46.885Z,40.50
2017-08-20T10:14:16.532Z,40.10
2017-08-20T10:16:44.819Z,39.00
2017-08-20T10:19:13.313Z,40.40
2017-08-20T10:21:41.583Z,40.50
2017-08-20T10:24:09.833Z,40.60
2017-08-20T10:26:38.068Z,40.40
2017-08-20T10:29:06.325Z,40.00
2017-08-20T10:31:35.520Z,40.20
2017-08-20T10:34:05.836Z,40.00
2017-08-20T10:36:34.173Z,40.10
2017-08-20T10:39:02.519Z,38.90
2017-08-20T10:41:30.801Z,38.00
2017-08-20T10:43:59.293Z,39.50
2017-08-20T10:46:27.572Z,37.00
2017-08-20T10:48:59.422Z,36.30
2017-08-20T10:51:27.696Z,36.30
2017-08-20T10:53:56.022Z,36.90
2017-08-20T10:56:24.296Z,35.70
2017-08-20T10:58:52.686Z,34.10
2017-08-20T11:01:21.033Z,35.00
2017-08-20T11:03:49.389Z,34.50
2017-08-20T11:06:17.669Z,31.10
2017-08-20T11:08:46.012Z,30.10
2017-08-20T11:11:14.765Z,31.00
2017-08-20T11:13:43.671Z,30.60
2017-08-20T11:16:13.426Z,30.80
2017-08-20T11:18:42.171Z,31.10
2017-08-20T11:21:12.041Z,32.10
2017-08-20T11:23:40.271Z,29.50
2017-08-20T11:26:10.541Z,27.30
2017-08-20T11:28:39.020Z,27.30
2017-08-20T11:31:07.278Z,26.90
2017-08-20T11:33:35.509Z,26.00
2017-08-20T11:36:04.045Z,25.80
2017-08-20T11:38:32.337Z,26.50
2017-08-20T11:41:00.632Z,26.60
2017-08-20T11:43:28.923Z,26.40
2017-08-20T11:45:57.341Z,27.30
2017-08-20T11:48:25.817Z,27.00
2017-08-20T11:50:54.115Z,27.00
2017-08-20T11:53:22.645Z,26.70
2017-08-20T11:55:51.071Z,26.60
2017-08-20T11:58:19.461Z,27.00
2017-08-20T12:00:47.745Z,26.70
2017-08-20T12:03:15.996Z,26.50
2017-08-20T12:05:44.257Z,26.10
2017-08-20T12:08:12.532Z,26.40
2017-08-20T12:10:40.809Z,25.90
2017-08-20T12:13:09.148Z,25.10
2017-08-20T12:15:37.388Z,24.50
2017-08-20T12:18:05.629Z,25.50
2017-08-20T12:20:33.894Z,25.00
2017-08-20T12:23:02.899Z,25.40
2017-08-20T12:25:31.149Z,25.40
2017-08-20T12:28:00.307Z,26.40
2017-08-20T12:30:28.617Z,26.40
2017-08-20T12:32:56.921Z,26.60
2017-08-20T12:35:25.202Z,27.50
2017-08-20T12:37:53.465Z,28.40
2017-08-20T12:40:21.759Z,28.10
2017-08-20T12:42:50.274Z,29.00
2017-08-20T12:45:18.537Z,28.60
2017-08-20T12:47:46.828Z,28.40
2017-08-20T12:50:15.457Z,29.00
2017-08-20T12:52:43.771Z,29.00
2017-08-20T12:55:12.030Z,29.80
2017-08-20T12:57:40.272Z,29.90
2017-08-20T13:00:08.571Z,29.30
2017-08-20T13:02:36.974Z,30.10
2017-08-20T13:05:05.294Z,29.60
2017-08-20T13:07:33.533Z,30.40
2017-08-20T13:10:01.922Z,31.40
2017-08-20T13:12:30.153Z,32.30
2017-08-20T13:14:58.546Z,32.80
2017-08-20T13:17:26.867Z,32.40
2017-08-20T13:19:56.821Z,32.90
2017-08-20T13:22:26.737Z,33.80
2017-08-20T13:24:55.877Z,34.50
2017-08-20T13:27:24.205Z,34.50
2017-08-20T13:29:53.310Z,34.20
2017-08-20T13:32:22.000Z,34.20
2017-08-20T13:34:50.875Z,33.80
2017-08-20T13:37:20.008Z,32.00
2017-08-20T13:39:48.231Z,32.00
2017-08-20T13:42:17.257Z,34.00
2017-08-20T13:44:45.601Z,34.00
2017-08-20T13:47:13.882Z,35.80
2017-08-20T13:49:42.149Z,40.20
2017-08-20T13:52:10.481Z,41.50
2017-08-20T13:54:38.732Z,42.10
2017-08-20T13:57:07.001Z,43.00
2017-08-20T13:59:35.304Z,43.40
2017-08-20T14:02:03.554Z,43.80
2017-08-20T14:04:31.808Z,43.10
2017-08-20T14:07:00.816Z,42.40
2017-08-20T14:09:29.330Z,42.30
2017-08-20T14:11:58.403Z,42.70
2017-08-20T14:14:26.789Z,42.70
2017-08-20T14:16:55.112Z,42.20
2017-08-20T14:19:23.342Z,42.20
2017-08-20T14:21:51.619Z,42.60
2017-08-20T14:24:19.885Z,42.60
2017-08-20T14:26:48.268Z,42.20
2017-08-20T14:29:16.618Z,42.90
2017-08-20T14:31:45.806Z,42.50
2017-08-20T14:34:14.952Z,37.40
2017-08-20T14:36:43.307Z,37.20
2017-08-20T14:39:11.631Z,36.40
2017-08-20T14:41:40.022Z,35.90
2017-08-20T14:44:08.257Z,36.70
2017-08-20T14:46:36.801Z,36.20
2017-08-20T14:49:05.299Z,36.10
2017-08-20T14:51:34.414Z,36.00
2017-08-20T14:54:02.689Z,36.00
2017-08-20T14:56:31.492Z,36.10
2017-08-20T14:58:59.830Z,36.00
2017-08-20T15:01:28.199Z,35.80
2017-08-20T15:03:56.468Z,36.00
2017-08-20T15:06:24.706Z,37.10
2017-08-20T15:08:52.940Z,37.50
2017-08-20T15:11:21.310Z,37.30
2017-08-20T15:13:49.598Z,38.30
2017-08-20T15:16:17.894Z,38.70
2017-08-20T15:18:46.149Z,39.20
2017-08-20T15:21:14.451Z,39.40
2017-08-20T15:23:42.707Z,39.70
2017-08-20T15:26:11.101Z,39.50
2017-08-20T15:28:39.403Z,39.40
2017-08-20T15:31:07.661Z,39.40
2017-08-20T15:33:35.929Z,39.40
2017-08-20T15:36:04.275Z,39.60
2017-08-20T15:38:32.518Z,39.50
2017-08-20T15:41:01.661Z,39.50
2017-08-20T15:43:29.907Z,39.40
2017-08-20T15:45:58.934Z,39.90
2017-08-20T15:48:27.277Z,39.80
2017-08-20T15:50:55.770Z,39.30
2017-08-20T15:53:24.110Z,39.60
2017-08-20T15:55:52.443Z,40.50
2017-08-20T15:58:20.677Z,40.30
2017-08-20T16:00:49.020Z,40.90
2017-08-20T16:03:17.469Z,40.50
2017-08-20T16:05:45.727Z,40.70
2017-08-20T16:08:14.004Z,41.00
2017-08-20T16:10:42.277Z,40.70
2017-08-20T16:13:11.319Z,40.20
2017-08-20T16:15:40.484Z,40.70
2017-08-20T16:18:08.737Z,40.70
2017-08-20T16:20:37.740Z,40.30
2017-08-20T16:23:06.352Z,40.30
2017-08-20T16:25:34.640Z,40.30
2017-08-20T16:28:03.072Z,40.60
2017-08-20T16:30:31.318Z,40.70
2017-08-20T16:32:59.557Z,40.70
2017-08-20T16:35:27.880Z,40.90
2017-08-20T16:37:56.146Z,41.30
2017-08-20T16:40:24.440Z,41.40
2017-08-20T16:42:52.733Z,40.90
2017-08-20T16:45:21.028Z,41.40
2017-08-20T16:47:49.277Z,41.60
2017-08-20T16:50:17.546Z,41.40
2017-08-20T16:52:46.795Z,42.10
2017-08-20T16:55:15.064Z,42.00
2017-08-20T16:57:43.348Z,42.20
2017-08-20T17:00:13.257Z,41.60
2017-08-20T17:02:41.515Z,42.10
2017-08-20T17:05:09.742Z,42.40
2017-08-20T17:07:38.874Z,42.70
2017-08-20T17:10:07.132Z,42.50
2017-08-20T17:12:36.824Z,42.90
2017-08-20T17:15:05.141Z,42.90
2017-08-20T17:17:33.675Z,43.70
2017-08-20T17:20:02.014Z,44.20
2017-08-20T17:22:30.461Z,44.20
2017-08-20T17:24:58.721Z,44.40
2017-08-20T17:27:27.844Z,44.70
2017-08-20T17:29:56.185Z,44.40
2017-08-20T17:32:25.254Z,45.20
2017-08-20T17:34:53.529Z,45.00
2017-08-20T17:37:21.956Z,45.20
2017-08-20T17:39:50.226Z,45.50
2017-08-20T17:42:19.218Z,44.70
2017-08-20T17:44:47.495Z,44.70
2017-08-20T17:47:15.782Z,45.00
2017-08-20T17:49:44.220Z,45.10
2017-08-20T17:52:12.564Z,45.30
2017-08-20T17:54:40.938Z,45.30
2017-08-20T17:57:09.350Z,45.30
2017-08-20T17:59:37.990Z,45.80
2017-08-20T18:02:06.228Z,45.90
2017-08-20T18:04:34.578Z,45.80
2017-08-20T18:07:03.217Z,45.90
2017-08-20T18:09:31.812Z,46.10
2017-08-20T18:12:00.077Z,46.30
2017-08-20T18:14:28.442Z,46.60
2017-08-20T18:16:56.758Z,47.10
2017-08-20T18:19:25.058Z,47.30
2017-08-20T18:21:53.483Z,47.70
2017-08-20T18:24:21.866Z,47.60
2017-08-20T18:26:50.974Z,48.30
2017-08-20T18:29:19.426Z,48.20
2017-08-20T18:31:48.426Z,48.10
2017-08-20T18:34:16.669Z,48.10
2017-08-20T18:36:45.720Z,48.20
2017-08-20T18:39:14.039Z,48.20
2017-08-20T18:41:42.294Z,48.50
2017-08-20T18:44:10.599Z,49.00
2017-08-20T18:46:38.832Z,49.20
2017-08-20T18:49:07.237Z,49.20
2017-08-20T18:51:35.770Z,49.70
2017-08-20T18:54:04.029Z,50.10
2017-08-20T18:56:32.311Z,50.00
2017-08-20T18:59:00.555Z,50.10
2017-08-20T19:01:29.621Z,50.40
2017-08-20T19:03:58.037Z,50.40
2017-08-20T19:06:26.343Z,50.80
2017-08-20T19:08:54.637Z,50.90
2017-08-20T19:11:22.963Z,51.30
2017-08-20T19:13:51.188Z,51.60
2017-08-20T19:16:19.657Z,51.70
2017-08-20T19:18:48.133Z,51.50
2017-08-20T19:21:16.428Z,51.60
2017-08-20T19:23:44.775Z,51.70
2017-08-20T19:26:13.057Z,51.60
2017-08-20T19:28:42.123Z,51.80
2017-08-20T19:31:11.448Z,51.50
2017-08-20T19:33:39.775Z,51.50
2017-08-20T19:36:08.025Z,51.90
2017-08-20T19:38:36.279Z,52.30
2017-08-20T19:41:05.084Z,52.50
2017-08-20T19:43:33.365Z,53.30
2017-08-20T19:46:01.604Z,53.60
2017-08-20T19:48:30.797Z,54.00
2017-08-20T19:50:59.021Z,54.00
2017-08-20T19:53:27.378Z,54.30
2017-08-20T19:55:55.623Z,54.30
2017-08-20T19:58:25.545Z,54.60
2017-08-20T20:00:53.847Z,54.60
2017-08-20T20:03:22.184Z,54.30
2017-08-20T20:05:50.488Z,54.00
2017-08-20T20:08:19.151Z,54.60
2017-08-20T20:10:47.715Z,55.10
2017-08-20T20:13:16.287Z,55.20
2017-08-20T20:15:44.502Z,55.50
2017-08-20T20:18:12.778Z,55.70
2017-08-20T20:20:41.128Z,55.60
2017-08-20T20:23:10.221Z,55.70
2017-08-20T20:25:38.683Z,55.60
2017-08-20T20:28:07.004Z,55.80
2017-08-20T20:30:35.341Z,55.90
2017-08-20T20:33:04.028Z,56.30
2017-08-20T20:35:32.248Z,56.50
2017-08-20T20:38:00.708Z,56.70
2017-08-20T20:40:29.081Z,56.90
2017-08-20T20:42:57.381Z,56.80
2017-08-20T20:45:25.742Z,57.00
2017-08-20T20:47:54.109Z,57.00
2017-08-20T20:50:23.237Z,57.30
2017-08-20T20:52:51.496Z,57.30
2017-08-20T20:55:19.782Z,57.40
2017-08-20T20:57:48.040Z,57.40
2017-08-20T21:00:17.306Z,57.60
2017-08-20T21:02:45.792Z,57.60
2017-08-20T21:05:14.215Z,57.90
2017-08-20T21:07:42.526Z,58.00
2017-08-20T21:10:10.860Z,58.40
2017-08-20T21:12:39.875Z,59.00
2017-08-20T21:15:08.132Z,58.30
2017-08-20T21:17:36.397Z,58.60
2017-08-20T21:20:04.672Z,58.70
2017-08-20T21:22:32.944Z,58.80
2017-08-20T21:25:01.397Z,59.20
2017-08-20T21:27:29.607Z,59.40
2017-08-20T21:29:57.906Z,59.40
2017-08-20T21:32:26.344Z,59.60
2017-08-20T21:34:54.577Z,59.80
2017-08-20T21:37:23.321Z,60.10
2017-08-20T21:39:52.352Z,61.20
2017-08-20T21:42:22.252Z,60.40
2017-08-20T21:44:50.517Z,60.40
2017-08-20T21:47:18.888Z,60.80
2017-08-20T21:49:47.160Z,61.00
2017-08-20T21:52:16.219Z,61.50
2017-08-20T21:54:44.522Z,62.20
2017-08-20T21:57:12.773Z,62.40
2017-08-20T21:59:41.801Z,62.90
2017-08-20T22:02:10.118Z,62.90
2017-08-20T22:04:38.368Z,63.00
2017-08-20T22:07:06.653Z,63.40
2017-08-20T22:09:36.965Z,63.70
2017-08-20T22:12:06.335Z,64.00
2017-08-20T22:14:34.548Z,63.90
2017-08-20T22:17:02.842Z,63.80
2017-08-20T22:19:31.173Z,63.80
2017-08-20T22:21:59.661Z,64.00
2017-08-20T22:24:28.687Z,64.60
2017-08-20T22:26:56.950Z,64.60
2017-08-20T22:29:25.318Z,64.60
2017-08-20T22:31:53.583Z,64.80
2017-08-20T22:34:21.875Z,65.50
2017-08-20T22:36:50.131Z,65.50
2017-08-20T22:39:18.386Z,65.60
2017-08-20T22:41:47.499Z,65.60
2017-08-20T22:44:16.491Z,65.80
2017-08-20T22:46:44.803Z,65.80
2017-08-20T22:49:13.031Z,65.80
2017-08-20T22:51:41.400Z,65.90
2017-08-20T22:54:09.648Z,66.20
2017-08-20T22:56:38.319Z,66.40
2017-08-20T22:59:06.627Z,66.50
2017-08-20T23:01:35.308Z,66.30
2017-08-20T23:04:03.605Z,65.90
2017-08-20T23:06:33.593Z,65.90
2017-08-20T23:09:02.232Z,65.90
2017-08-20T23:11:30.612Z,66.00
2017-08-20T23:13:58.863Z,66.20
2017-08-20T23:16:27.296Z,66.10
2017-08-20T23:18:55.561Z,66.10
2017-08-20T23:21:25.398Z,66.00
2017-08-20T23:23:53.679Z,65.80
2017-08-20T23:26:21.940Z,66.20
2017-08-20T23:28:50.190Z,66.20
2017-08-20T23:31:18.480Z,66.40
2017-08-20T23:33:46.729Z,66.20
2017-08-20T23:36:15.018Z,66.60
2017-08-20T23:38:43.585Z,66.50
2017-08-20T23:41:12.018Z,66.80
2017-08-20T23:43:40.403Z,66.90
2017-08-20T23:46:08.649Z,67.10
2017-08-20T23:48:36.938Z,67.00
2017-08-20T23:51:05.152Z,67.70
2017-08-20T23:53:33.430Z,67.90
2017-08-20T23:56:01.913Z,68.00
2017-08-20T23:58:30.898Z,68.60
